Time;durP1;ratioP1;P1;durP2;ratioP2;P2;SDS_P1;SDS_P2;PMS_P1;PMS_P2;Temp;Humidity;BMP_temperature;BMP_pressure;BME280_temperature;BME280_humidity;BME280_pressure;Samples;Min_cycle;Max_cycle;Signal;HPM_P1;HPM_P2
2021/11/21 00:00:23;;;;;;;25.95;11.85;;;10.10;99.90;;;;;;4853389;29;20030;-79
2021/11/21 00:02:51;;;;;;;23.08;11.65;;;10.10;99.90;;;;;;4854867;29;20028;-77
2021/11/21 00:05:17;;;;;;;23.73;11.88;;;10.10;99.90;;;;;;4853964;29;20037;-76
2021/11/21 00:07:43;;;;;;;27.20;12.48;;;10.10;99.90;;;;;;4851397;29;20533;-79
2021/11/21 00:10:09;;;;;;;24.15;11.98;;;10.20;99.90;;;;;;4853185;29;20034;-77
2021/11/21 00:12:35;;;;;;;29.52;13.40;;;10.20;99.90;;;;;;4837279;29;20510;-78
2021/11/21 00:15:03;;;;;;;32.00;12.98;;;10.10;99.90;;;;;;4853768;29;20483;-77
2021/11/21 00:17:29;;;;;;;25.63;11.82;;;10.10;99.90;;;;;;4848407;29;20581;-79
2021/11/21 00:19:54;;;;;;;20.40;11.85;;;10.10;99.90;;;;;;4838590;29;20029;-78
2021/11/21 00:22:20;;;;;;;24.17;12.52;;;10.10;99.90;;;;;;4842453;29;20518;-78
2021/11/21 00:24:46;;;;;;;24.63;11.88;;;10.10;99.90;;;;;;4858881;29;20037;-78
2021/11/21 00:27:12;;;;;;;22.55;10.43;;;10.20;99.90;;;;;;4859988;29;20030;-78
2021/11/21 00:29:38;;;;;;;33.58;13.00;;;10.10;99.90;;;;;;4859632;29;20028;-77
2021/11/21 00:32:04;;;;;;;26.20;11.77;;;10.10;99.90;;;;;;4860191;29;20030;-77
2021/11/21 00:34:30;;;;;;;23.55;11.73;;;10.10;99.90;;;;;;4846780;29;20124;-78
2021/11/21 00:36:56;;;;;;;21.58;10.73;;;10.10;99.90;;;;;;4860181;29;20502;-78
2021/11/21 00:39:22;;;;;;;22.35;10.80;;;10.10;99.90;;;;;;4859508;29;20120;-77
2021/11/21 00:41:48;;;;;;;18.70;10.10;;;10.10;99.90;;;;;;4854028;29;20799;-78
2021/11/21 00:44:14;;;;;;;22.98;10.25;;;10.10;99.90;;;;;;4859309;29;20029;-77
2021/11/21 00:46:40;;;;;;;20.88;10.30;;;10.10;99.90;;;;;;4859157;29;20033;-78
2021/11/21 00:49:12;;;;;;;21.20;9.80;;;10.10;99.90;;;;;;4859996;29;20507;-77
2021/11/21 00:51:38;;;;;;;24.55;9.07;;;10.10;99.90;;;;;;4860394;29;20043;-78
2021/11/21 00:54:09;;;;;;;25.80;11.80;;;10.10;99.90;;;;;;4844407;29;20561;-79
2021/11/21 00:56:35;;;;;;;18.08;8.77;;;10.10;99.90;;;;;;4841948;29;20072;-79
2021/11/21 00:59:01;;;;;;;15.07;7.95;;;10.10;99.90;;;;;;4841935;29;20081;-77
2021/11/21 01:01:27;;;;;;;22.85;8.75;;;10.10;99.90;;;;;;4859249;29;20117;-79
2021/11/21 01:03:56;;;;;;;23.70;9.05;;;10.10;99.90;;;;;;4846792;29;20068;-80
2021/11/21 01:06:23;;;;;;;14.70;7.85;;;10.10;99.90;;;;;;4864509;29;20109;-79
2021/11/21 01:08:49;;;;;;;17.52;7.05;;;10.10;99.90;;;;;;4863113;29;20029;-78
2021/11/21 01:11:15;;;;;;;17.60;7.43;;;10.10;99.90;;;;;;4862442;29;20037;-80
2021/11/21 01:13:41;;;;;;;17.35;8.00;;;10.00;99.90;;;;;;4863266;29;20501;-79
2021/11/21 01:16:07;;;;;;;15.27;6.05;;;10.00;99.90;;;;;;4863094;29;20026;-80
2021/11/21 01:18:34;;;;;;;12.82;7.25;;;10.00;99.90;;;;;;4862952;29;20068;-78
2021/11/21 01:20:59;;;;;;;18.40;6.65;;;10.00;99.90;;;;;;4862446;29;20088;-79
2021/11/21 01:23:25;;;;;;;13.48;6.55;;;10.00;99.90;;;;;;4863018;29;20037;-80
2021/11/21 01:25:51;;;;;;;14.82;6.03;;;10.10;99.90;;;;;;4845647;29;20030;-79
2021/11/21 01:28:16;;;;;;;15.65;7.35;;;10.10;99.90;;;;;;4846081;29;20075;-79
2021/11/21 01:30:44;;;;;;;12.43;5.85;;;10.10;99.90;;;;;;4862643;29;20037;-79
2021/11/21 01:33:10;;;;;;;19.37;6.90;;;10.10;99.90;;;;;;4846193;29;20033;-79
2021/11/21 01:35:36;;;;;;;14.90;6.43;;;10.10;99.90;;;;;;4863073;29;20053;-79
2021/11/21 01:38:03;;;;;;;11.85;6.55;;;10.10;99.90;;;;;;4862120;29;20117;-79
2021/11/21 01:40:29;;;;;;;14.07;6.18;;;10.10;99.90;;;;;;4862489;29;20032;-80
2021/11/21 01:42:56;;;;;;;13.25;6.05;;;10.10;99.90;;;;;;4862289;29;20026;-80
2021/11/21 01:45:22;;;;;;;13.73;6.32;;;10.10;99.90;;;;;;4863172;29;20029;-81
2021/11/21 01:47:48;;;;;;;14.70;6.38;;;10.10;99.90;;;;;;4847125;29;20037;-81
2021/11/21 01:50:19;;;;;;;13.57;6.25;;;10.10;99.90;;;;;;4862767;29;20029;-80
2021/11/21 01:52:45;;;;;;;12.77;6.80;;;10.10;99.90;;;;;;4845901;29;20568;-81
2021/11/21 01:55:11;;;;;;;7.85;4.90;;;10.00;99.90;;;;;;4862334;29;20037;-80
2021/11/21 01:57:37;;;;;;;16.48;5.90;;;10.10;99.90;;;;;;4862618;29;20406;-80
2021/11/21 02:00:08;;;;;;;13.10;6.15;;;10.10;99.90;;;;;;4862223;29;20045;-79
2021/11/21 02:02:33;;;;;;;18.17;7.20;;;10.10;99.90;;;;;;4864981;29;20471;-80
2021/11/21 02:04:59;;;;;;;13.63;6.68;;;10.10;99.90;;;;;;4862693;29;20025;-80
2021/11/21 02:07:27;;;;;;;14.02;6.68;;;10.10;99.90;;;;;;4861726;29;20030;-81
2021/11/21 02:09:53;;;;;;;15.23;6.97;;;10.10;99.90;;;;;;4862541;29;20026;-82
2021/11/21 02:12:18;;;;;;;17.35;7.30;;;10.10;99.90;;;;;;4861789;29;20029;-82
2021/11/21 02:14:44;;;;;;;16.65;6.93;;;10.10;99.90;;;;;;4862448;29;20025;-80
2021/11/21 02:17:10;;;;;;;21.23;9.27;;;10.10;99.90;;;;;;4862046;29;20031;-78
2021/11/21 02:19:35;;;;;;;16.15;7.95;;;10.10;99.90;;;;;;4862668;29;20083;-78
2021/11/21 02:22:01;;;;;;;22.73;9.35;;;10.00;99.90;;;;;;4862516;29;20029;-77
2021/11/21 02:24:27;;;;;;;22.75;9.48;;;10.00;99.90;;;;;;4845188;29;20040;-77
2021/11/21 02:26:53;;;;;;;22.05;9.35;;;10.00;99.90;;;;;;4861161;29;20395;-76
2021/11/21 02:29:19;;;;;;;23.65;9.25;;;9.90;99.90;;;;;;4862796;29;20044;-77
2021/11/21 02:31:45;;;;;;;22.33;10.38;;;10.00;99.90;;;;;;4876314;29;20026;-76
2021/11/21 02:34:10;;;;;;;21.83;9.82;;;10.00;99.90;;;;;;4844970;29;20502;-77
2021/11/21 02:36:41;;;;;;;24.52;9.10;;;10.00;99.90;;;;;;4862161;29;20093;-76
2021/11/21 02:39:06;;;;;;;25.75;10.25;;;10.00;99.90;;;;;;4861044;29;20025;-76
2021/11/21 02:41:32;;;;;;;19.63;9.60;;;10.00;99.90;;;;;;4844791;29;20044;-77
2021/11/21 02:43:58;;;;;;;26.13;9.75;;;9.90;99.90;;;;;;4861640;29;20065;-77
2021/11/21 02:46:24;;;;;;;27.02;11.18;;;9.90;99.90;;;;;;4844477;29;20030;-78
2021/11/21 02:48:50;;;;;;;23.30;9.75;;;9.90;99.90;;;;;;4861025;29;20448;-78
2021/11/21 02:51:15;;;;;;;29.00;10.85;;;10.00;99.90;;;;;;4861206;29;20037;-78
2021/11/21 02:53:43;;;;;;;24.23;10.27;;;10.00;99.90;;;;;;4860737;29;20081;-78
2021/11/21 02:56:11;;;;;;;;;;;10.00;99.90;;;;;;4844855;29;20021;-78
2021/11/21 02:58:37;;;;;;;27.90;10.45;;;10.00;99.90;;;;;;4860825;29;19920;-78
2021/11/21 03:01:08;;;;;;;25.30;10.10;;;10.10;99.90;;;;;;4868713;29;20119;-78
2021/11/21 03:03:34;;;;;;;23.23;11.02;;;10.00;99.90;;;;;;4863081;29;20025;-78
2021/11/21 03:05:59;;;;;;;29.38;10.07;;;10.00;99.90;;;;;;4861638;29;20436;-79
2021/11/21 03:08:26;;;;;;;27.10;10.55;;;10.00;99.90;;;;;;4844150;29;20140;-78
2021/11/21 03:10:53;;;;;;;25.73;10.38;;;10.00;99.90;;;;;;4859838;29;20402;-78
2021/11/21 03:13:19;;;;;;;27.55;11.18;;;10.10;99.90;;;;;;4860573;29;20033;-78
2021/11/21 03:15:45;;;;;;;22.02;10.57;;;10.10;99.90;;;;;;4868131;29;20029;-77
2021/11/21 03:18:11;;;;;;;23.17;9.93;;;10.10;99.90;;;;;;4843467;29;20066;-77
2021/11/21 03:20:37;;;;;;;26.73;11.15;;;10.10;99.90;;;;;;4860929;29;20037;-78
2021/11/21 03:23:05;;;;;;;22.13;10.27;;;10.00;99.90;;;;;;4844953;29;20036;-78
2021/11/21 03:25:31;;;;;;;;;;;10.00;99.90;;;;;;4844983;29;20075;-78
2021/11/21 03:27:57;;;;;;;22.45;10.35;;;10.00;99.90;;;;;;4844602;29;19960;-78
2021/11/21 03:30:23;;;;;;;22.05;9.25;;;9.90;99.90;;;;;;4845594;29;20101;-79
2021/11/21 03:32:50;;;;;;;29.10;9.48;;;10.00;99.90;;;;;;4845171;29;20038;-78
2021/11/21 03:35:16;;;;;;;20.27;10.15;;;9.90;99.90;;;;;;4845191;29;20041;-78
2021/11/21 03:37:43;;;;;;;18.58;9.18;;;9.90;99.90;;;;;;4861517;29;20042;-78
2021/11/21 03:40:11;;;;;;;20.15;7.43;;;9.90;99.90;;;;;;4860430;29;20056;-79
2021/11/21 03:42:37;;;;;;;16.38;8.57;;;9.90;99.90;;;;;;4864690;29;20025;-79
2021/11/21 03:45:05;;;;;;;13.52;7.07;;;9.90;99.90;;;;;;4878388;29;20021;-77
2021/11/21 03:47:30;;;;;;;23.33;8.02;;;9.90;99.90;;;;;;4860487;29;20114;-78
2021/11/21 03:49:56;;;;;;;17.77;7.80;;;9.90;99.90;;;;;;4861578;29;20480;-78
2021/11/21 03:52:22;;;;;;;14.23;8.32;;;9.90;99.90;;;;;;4844135;29;20033;-79
2021/11/21 03:54:48;;;;;;;14.60;7.30;;;9.90;99.90;;;;;;4843685;29;20040;-79
2021/11/21 03:57:13;;;;;;;15.23;8.00;;;9.90;99.90;;;;;;4865310;29;20030;-79
2021/11/21 03:59:39;;;;;;;13.63;7.18;;;9.90;99.90;;;;;;4844032;29;20052;-80
2021/11/21 04:02:05;;;;;;;19.17;8.55;;;9.90;99.90;;;;;;4863067;29;20025;-80
2021/11/21 04:04:32;;;;;;;15.05;7.55;;;9.90;99.90;;;;;;4860992;29;20098;-77
2021/11/21 04:06:59;;;;;;;17.02;7.93;;;9.90;99.90;;;;;;4859763;29;20105;-78
2021/11/21 04:09:25;;;;;;;17.58;6.18;;;9.90;99.90;;;;;;4843597;29;20117;-78
2021/11/21 04:11:51;;;;;;;16.83;6.43;;;9.90;99.90;;;;;;4859930;29;20033;-76
2021/11/21 04:14:18;;;;;;;13.07;5.20;;;10.00;99.90;;;;;;4843982;29;20036;-78
2021/11/21 04:16:44;;;;;;;10.35;6.35;;;10.00;99.90;;;;;;4860335;29;20036;-77
2021/11/21 04:19:10;;;;;;;11.40;5.40;;;10.00;99.90;;;;;;4859737;29;20048;-76
2021/11/21 04:21:36;;;;;;;10.13;4.93;;;10.10;99.90;;;;;;4843655;29;20029;-77
2021/11/21 04:24:02;;;;;;;12.10;5.50;;;10.10;99.90;;;;;;4845835;29;20025;-78
2021/11/21 04:26:28;;;;;;;9.40;5.25;;;10.10;99.90;;;;;;4882438;29;20036;-78
2021/11/21 04:28:54;;;;;;;9.05;4.50;;;10.10;99.90;;;;;;4866244;29;20487;-77
2021/11/21 04:31:19;;;;;;;11.50;4.88;;;10.10;99.90;;;;;;4847259;29;20086;-77
2021/11/21 04:33:46;;;;;;;9.50;4.03;;;10.20;99.90;;;;;;4846728;29;20129;-76
2021/11/21 04:36:12;;;;;;;6.90;3.65;;;10.20;99.90;;;;;;4868293;29;20036;-77
2021/11/21 04:38:38;;;;;;;7.55;4.07;;;10.20;99.90;;;;;;4868077;29;20038;-76
2021/11/21 04:41:04;;;;;;;8.93;3.97;;;10.10;99.90;;;;;;4846948;29;20106;-77
2021/11/21 04:43:30;;;;;;;6.57;3.60;;;10.20;99.90;;;;;;4863380;29;20562;-76
2021/11/21 04:45:56;;;;;;;10.15;4.07;;;10.10;99.90;;;;;;4847153;29;20116;-77
2021/11/21 04:48:23;;;;;;;15.85;3.33;;;10.10;99.90;;;;;;4846994;29;20036;-77
2021/11/21 04:50:50;;;;;;;5.13;2.63;;;10.10;99.90;;;;;;4872579;29;20108;-75
2021/11/21 04:53:16;;;;;;;7.50;3.67;;;10.10;99.90;;;;;;4854778;29;20387;-76
2021/11/21 04:55:41;;;;;;;4.30;2.42;;;10.10;99.90;;;;;;4846868;29;20124;-76
2021/11/21 04:58:07;;;;;;;5.63;2.83;;;10.10;99.90;;;;;;4846085;29;20046;-76
2021/11/21 05:00:33;;;;;;;5.68;1.95;;;10.10;99.90;;;;;;4863268;29;20479;-76
2021/11/21 05:02:59;;;;;;;4.63;2.15;;;10.20;99.90;;;;;;4846759;29;20136;-77
2021/11/21 05:05:25;;;;;;;3.97;1.77;;;10.10;99.90;;;;;;4846400;29;20121;-76
2021/11/21 05:07:52;;;;;;;6.35;2.05;;;10.10;99.90;;;;;;4863157;29;20037;-76
2021/11/21 05:10:19;;;;;;;1.92;1.27;;;10.10;99.90;;;;;;4846437;29;20084;-76
2021/11/21 05:12:45;;;;;;;3.35;1.45;;;10.10;99.90;;;;;;4862679;29;20282;-76
2021/11/21 05:15:14;;;;;;;16.80;1.73;;;10.10;99.90;;;;;;4863261;29;20113;-76
2021/11/21 05:17:40;;;;;;;4.13;1.08;;;10.10;99.90;;;;;;4862863;29;20068;-76
2021/11/21 05:20:06;;;;;;;7.43;1.10;;;10.10;99.90;;;;;;4862443;29;20036;-76
2021/11/21 05:22:32;;;;;;;4.53;0.70;;;10.10;99.90;;;;;;4846786;29;20117;-76
2021/11/21 05:24:58;;;;;;;5.30;0.77;;;10.00;99.90;;;;;;4873069;29;20025;-76
2021/11/21 05:27:24;;;;;;;10.55;1.15;;;10.00;99.90;;;;;;4861356;29;20089;-75
2021/11/21 05:29:53;;;;;;;5.18;0.80;;;10.00;99.90;;;;;;4845907;29;20041;-76
2021/11/21 05:32:20;;;;;;;7.25;1.38;;;10.00;99.90;;;;;;4845738;29;20150;-76
2021/11/21 05:34:45;;;;;;;1.45;0.50;;;9.90;99.90;;;;;;4862328;29;20029;-76
2021/11/21 05:37:12;;;;;;;5.03;1.00;;;9.90;99.90;;;;;;4862270;29;20070;-76
2021/11/21 05:39:38;;;;;;;6.38;1.40;;;9.90;99.90;;;;;;4845841;29;20040;-76
2021/11/21 05:42:04;;;;;;;4.07;0.80;;;9.90;99.90;;;;;;4861961;29;20029;-77
2021/11/21 05:44:30;;;;;;;3.95;0.98;;;9.90;99.90;;;;;;4862819;29;20026;-77
2021/11/21 05:46:55;;;;;;;3.22;0.60;;;9.90;99.90;;;;;;4862464;29;20035;-77
2021/11/21 05:49:21;;;;;;;5.13;1.00;;;9.90;99.90;;;;;;4845556;29;20368;-77
2021/11/21 05:51:47;;;;;;;7.13;0.93;;;9.90;99.90;;;;;;4845593;29;20575;-77
2021/11/21 05:54:12;;;;;;;11.40;1.05;;;9.90;99.90;;;;;;4865019;29;20029;-76
2021/11/21 05:56:38;;;;;;;4.22;0.75;;;9.90;99.90;;;;;;4862251;29;20089;-77
2021/11/21 05:59:04;;;;;;;5.35;0.40;;;9.80;99.90;;;;;;4861688;29;20053;-76
2021/11/21 06:01:29;;;;;;;13.27;0.80;;;9.90;99.90;;;;;;4862416;29;20110;-76
2021/11/21 06:03:55;;;;;;;11.55;0.80;;;9.90;99.90;;;;;;4862006;29;20056;-76
2021/11/21 06:06:22;;;;;;;8.20;0.95;;;9.80;99.90;;;;;;4862710;29;20428;-77
2021/11/21 06:08:48;;;;;;;7.55;1.17;;;9.80;99.90;;;;;;4861668;29;20034;-76
2021/11/21 06:11:15;;;;;;;7.53;0.85;;;9.80;99.90;;;;;;4871647;29;20096;-77
2021/11/21 06:13:42;;;;;;;4.55;0.80;;;9.80;99.90;;;;;;4846875;29;20049;-77
2021/11/21 06:16:08;;;;;;;3.05;0.75;;;9.80;99.90;;;;;;4845572;29;20030;-76
2021/11/21 06:18:34;;;;;;;11.30;1.02;;;9.80;99.90;;;;;;4844954;29;20098;-77
2021/11/21 06:21:00;;;;;;;10.55;1.10;;;9.80;99.90;;;;;;4862078;29;20140;-76
2021/11/21 06:23:26;;;;;;;6.00;1.02;;;9.80;99.90;;;;;;4873839;29;20097;-77
2021/11/21 06:25:52;;;;;;;1.92;0.28;;;9.80;99.90;;;;;;4872514;29;20049;-76
2021/11/21 06:28:19;;;;;;;4.00;0.50;;;9.80;99.90;;;;;;4883196;29;20041;-77
2021/11/21 06:30:45;;;;;;;12.30;0.82;;;9.80;99.90;;;;;;4864581;29;20058;-77
2021/11/21 06:33:12;;;;;;;7.15;0.70;;;9.80;99.90;;;;;;4861523;29;20513;-78
2021/11/21 06:35:39;;;;;;;2.38;1.27;;;9.80;99.90;;;;;;4845260;29;20029;-77
2021/11/21 06:38:05;;;;;;;7.80;1.38;;;9.80;99.90;;;;;;4844752;29;20491;-78
2021/11/21 06:40:31;;;;;;;13.75;1.67;;;9.80;99.90;;;;;;4862611;29;20447;-77
2021/11/21 06:42:57;;;;;;;6.40;0.63;;;9.70;99.90;;;;;;4856076;29;20405;-77
2021/11/21 06:45:23;;;;;;;14.15;0.93;;;9.70;99.90;;;;;;4872580;29;20080;-77
2021/11/21 06:47:50;;;;;;;7.55;0.90;;;9.70;99.90;;;;;;4873473;29;20021;-76
2021/11/21 06:50:16;;;;;;;6.70;1.30;;;9.70;99.90;;;;;;4879672;29;20041;-77
2021/11/21 06:52:42;;;;;;;12.20;1.27;;;9.70;99.90;;;;;;4844408;29;20029;-77
2021/11/21 06:55:10;;;;;;;11.70;1.13;;;9.70;99.90;;;;;;4861345;29;20049;-77
2021/11/21 06:57:36;;;;;;;8.90;1.10;;;9.70;99.90;;;;;;4863301;29;20082;-78
2021/11/21 07:00:09;;;;;;;5.97;1.15;;;9.70;99.90;;;;;;4866674;29;20049;-77
2021/11/21 07:02:35;;;;;;;9.65;0.88;;;9.60;99.90;;;;;;4847394;29;20475;-77
2021/11/21 07:05:00;;;;;;;4.55;1.30;;;9.60;99.90;;;;;;4874056;29;20036;-77
2021/11/21 07:07:26;;;;;;;5.78;1.08;;;9.60;99.90;;;;;;4878695;29;20062;-77
2021/11/21 07:09:53;;;;;;;6.88;1.13;;;9.60;99.90;;;;;;4866642;29;20034;-78
2021/11/21 07:12:19;;;;;;;3.00;1.20;;;9.50;99.90;;;;;;4866062;29;20491;-77
2021/11/21 07:14:45;;;;;;;8.90;1.40;;;9.50;99.90;;;;;;4862922;29;20108;-76
2021/11/21 07:17:10;;;;;;;2.35;0.90;;;9.50;99.90;;;;;;4867141;29;20037;-77
2021/11/21 07:19:36;;;;;;;12.27;1.35;;;9.40;99.90;;;;;;4860799;29;20042;-77
2021/11/21 07:22:02;;;;;;;6.15;0.52;;;9.40;99.90;;;;;;4844711;29;20041;-78
2021/11/21 07:24:28;;;;;;;2.85;0.80;;;9.30;99.90;;;;;;4844445;29;20052;-78
2021/11/21 07:26:56;;;;;;;10.90;0.95;;;9.30;99.90;;;;;;4844108;29;20026;-78
2021/11/21 07:29:28;;;;;;;8.45;1.00;;;9.30;99.90;;;;;;4858714;29;20033;-78
2021/11/21 07:31:58;;;;;;;2.30;0.93;;;9.20;99.90;;;;;;4850037;29;20034;-80
2021/11/21 07:34:24;;;;;;;10.88;0.80;;;9.20;99.90;;;;;;4861309;29;20025;-78
2021/11/21 07:36:49;;;;;;;8.07;0.90;;;9.10;99.90;;;;;;4860232;29;20394;-77
2021/11/21 07:39:15;;;;;;;5.53;0.65;;;9.10;99.90;;;;;;4860556;29;20037;-78
2021/11/21 07:41:41;;;;;;;6.50;0.75;;;9.10;99.90;;;;;;4844275;29;20109;-77
2021/11/21 07:44:08;;;;;;;9.73;2.03;;;9.10;99.90;;;;;;4867356;29;20060;-78
2021/11/21 07:46:35;;;;;;;6.88;1.20;;;9.10;99.90;;;;;;4871180;29;20018;-80
2021/11/21 07:49:01;;;;;;;24.60;1.92;;;9.10;99.90;;;;;;4847105;29;20033;-79
2021/11/21 07:51:26;;;;;;;7.10;1.00;;;9.00;99.90;;;;;;4863931;29;20453;-78
2021/11/21 07:53:52;;;;;;;6.07;1.13;;;9.00;99.90;;;;;;4865294;29;20136;-80
2021/11/21 07:56:18;;;;;;;6.72;1.15;;;9.00;99.90;;;;;;4847481;29;20037;-80
2021/11/21 07:58:44;;;;;;;3.88;0.52;;;9.00;99.90;;;;;;4865286;29;20041;-78
2021/11/21 08:01:10;;;;;;;6.95;0.57;;;9.00;99.90;;;;;;4862678;29;20041;-81
2021/11/21 08:03:35;;;;;;;6.50;0.45;;;9.00;99.90;;;;;;4882836;29;20058;-80
2021/11/21 08:06:02;;;;;;;4.95;0.50;;;9.00;99.90;;;;;;4867547;29;20037;-79
2021/11/21 08:08:27;;;;;;;9.80;1.05;;;8.90;99.90;;;;;;4865396;29;20021;-81
2021/11/21 08:10:53;;;;;;;11.43;1.40;;;8.90;99.90;;;;;;4856901;29;20446;-79
2021/11/21 08:13:19;;;;;;;5.53;0.60;;;8.80;99.90;;;;;;4860462;29;20018;-80
2021/11/21 08:15:47;;;;;;;8.07;0.77;;;8.80;99.90;;;;;;4878043;29;20068;-78
2021/11/21 08:18:14;;;;;;;8.65;0.77;;;8.70;99.90;;;;;;4861023;29;20053;-78
2021/11/21 08:20:40;;;;;;;3.30;0.63;;;8.70;99.90;;;;;;4857801;29;20061;-80
2021/11/21 08:23:06;;;;;;;4.32;0.93;;;8.70;99.90;;;;;;4866636;29;20032;-78
2021/11/21 08:25:31;;;;;;;2.28;0.43;;;8.60;99.90;;;;;;4868830;29;20014;-78
2021/11/21 08:27:57;;;;;;;2.53;0.60;;;8.60;99.90;;;;;;4869128;29;20038;-78
2021/11/21 08:30:24;;;;;;;3.13;0.75;;;8.60;99.90;;;;;;4884020;29;20018;-78
2021/11/21 08:32:50;;;;;;;9.65;1.00;;;8.60;99.90;;;;;;4868363;29;20018;-78
2021/11/21 08:35:17;;;;;;;7.40;1.08;;;8.60;99.90;;;;;;4884357;29;20070;-78
2021/11/21 08:37:43;;;;;;;3.53;1.00;;;8.60;99.90;;;;;;4883469;29;20014;-78
2021/11/21 08:40:10;;;;;;;10.00;0.60;;;8.60;99.90;;;;;;4866455;29;20090;-78
2021/11/21 08:42:37;;;;;;;4.85;0.77;;;8.60;99.90;;;;;;4865959;29;20057;-77
2021/11/21 08:45:05;;;;;;;13.50;1.75;;;8.50;99.90;;;;;;4882036;29;20068;-77
2021/11/21 08:47:30;;;;;;;8.48;0.80;;;8.50;99.90;;;;;;4879604;29;20049;-78
2021/11/21 08:49:56;;;;;;;6.72;1.15;;;8.50;99.90;;;;;;4851636;29;20041;-78
2021/11/21 08:52:24;;;;;;;5.63;1.00;;;8.50;99.90;;;;;;4847147;29;20506;-79
2021/11/21 08:54:50;;;;;;;3.90;0.95;;;8.60;99.90;;;;;;4862961;29;20030;-79
2021/11/21 08:57:16;;;;;;;3.10;0.65;;;8.70;99.90;;;;;;4849350;29;20085;-79
2021/11/21 08:59:42;;;;;;;9.57;1.00;;;8.80;99.90;;;;;;4859815;29;20049;-79
2021/11/21 09:02:08;;;;;;;13.20;0.88;;;8.90;99.90;;;;;;4857720;29;20472;-78
2021/11/21 09:04:34;;;;;;;4.53;0.93;;;8.90;99.90;;;;;;4859926;29;20026;-78
2021/11/21 09:06:59;;;;;;;14.50;1.42;;;9.00;99.90;;;;;;4859776;29;20041;-78
2021/11/21 09:09:25;;;;;;;4.43;0.80;;;9.10;99.90;;;;;;4859928;29;20056;-77
2021/11/21 09:11:51;;;;;;;4.28;1.17;;;9.10;99.90;;;;;;4846605;29;20070;-78
2021/11/21 09:14:17;;;;;;;2.60;0.85;;;9.20;99.90;;;;;;4862709;29;20483;-77
2021/11/21 09:16:43;;;;;;;8.95;1.15;;;9.30;99.90;;;;;;4863188;29;20029;-77
2021/11/21 09:19:09;;;;;;;11.88;2.35;;;9.30;99.90;;;;;;4881240;29;20033;-77
2021/11/21 09:21:35;;;;;;;13.48;2.10;;;9.40;99.90;;;;;;4846536;29;20623;-78
2021/11/21 09:24:01;;;;;;;7.55;0.95;;;9.50;99.90;;;;;;4857208;29;20038;-79
2021/11/21 09:26:28;;;;;;;10.35;1.67;;;9.40;99.90;;;;;;4851021;29;20086;-78
2021/11/21 09:28:54;;;;;;;3.22;1.08;;;9.50;99.90;;;;;;4862295;29;20414;-78
2021/11/21 09:31:20;;;;;;;9.48;1.45;;;9.50;99.90;;;;;;4862267;29;20034;-77
2021/11/21 09:33:46;;;;;;;12.30;1.33;;;9.60;99.90;;;;;;4846186;29;20065;-80
2021/11/21 09:36:12;;;;;;;6.13;1.10;;;9.70;99.90;;;;;;4862468;29;20068;-78
2021/11/21 09:38:38;;;;;;;4.43;1.67;;;9.80;99.90;;;;;;4859435;29;20372;-80
2021/11/21 09:41:03;;;;;;;8.07;1.17;;;9.70;99.90;;;;;;4846624;29;20029;-79
2021/11/21 09:43:31;;;;;;;8.48;1.27;;;9.80;99.90;;;;;;4862969;29;20029;-80
2021/11/21 09:45:56;;;;;;;9.97;1.13;;;9.80;99.90;;;;;;4862886;29;20026;-78
2021/11/21 09:48:29;;;;;;;7.10;1.08;;;9.80;99.90;;;;;;4851442;29;20052;-79
2021/11/21 09:50:55;;;;;;;3.30;1.25;;;9.80;99.90;;;;;;4846393;29;20451;-79
2021/11/21 09:53:22;;;;;;;6.15;1.77;;;9.80;99.90;;;;;;4862271;29;20517;-78
2021/11/21 09:55:48;;;;;;;7.18;1.50;;;9.80;99.90;;;;;;4857166;29;20120;-79
2021/11/21 09:58:14;;;;;;;17.65;1.20;;;9.80;99.90;;;;;;4861693;29;20538;-78
2021/11/21 10:00:40;;;;;;;2.83;0.90;;;9.80;99.90;;;;;;4862229;29;20395;-79
2021/11/21 10:03:11;;;;;;;6.63;0.85;;;9.90;99.90;;;;;;4857968;29;20045;-78
2021/11/21 10:05:43;;;;;;;5.60;1.10;;;9.90;99.90;;;;;;4857238;29;20085;-79
2021/11/21 10:08:18;;;;;;;11.05;1.05;;;9.90;99.90;;;;;;4862120;29;20040;-79
2021/11/21 10:10:46;;;;;;;9.00;1.17;;;10.00;99.90;;;;;;4861490;29;20033;-78
2021/11/21 10:13:41;;;;;;;3.92;0.75;;;10.00;99.90;;;;;;4862092;29;20444;-79
2021/11/21 10:16:18;;;;;;;5.63;0.70;;;9.90;99.90;;;;;;4856144;29;20026;-79
2021/11/21 10:18:44;;;;;;;15.52;1.38;;;10.00;99.90;;;;;;4856272;29;20140;-79
2021/11/21 10:21:10;;;;;;;7.18;0.98;;;10.00;99.90;;;;;;4858246;29;20052;-78
2021/11/21 10:23:36;;;;;;;8.27;1.27;;;10.00;99.90;;;;;;4861342;29;20026;-78
2021/11/21 10:26:01;;;;;;;6.53;1.13;;;10.10;99.90;;;;;;4861819;29;20038;-78
2021/11/21 10:28:30;;;;;;;6.22;0.68;;;10.10;99.90;;;;;;4860291;29;20033;-78
2021/11/21 10:31:10;;;;;;;7.38;1.00;;;10.10;99.90;;;;;;4861741;29;20041;-79
2021/11/21 10:33:41;;;;;;;6.95;1.00;;;10.20;99.90;;;;;;4861200;29;20371;-79
2021/11/21 10:36:14;;;;;;;2.08;1.15;;;10.30;99.90;;;;;;4861399;29;20093;-79
2021/11/21 10:38:44;;;;;;;4.88;0.68;;;10.40;99.90;;;;;;4860883;29;20036;-77
2021/11/21 10:41:13;;;;;;;6.57;0.55;;;10.40;99.90;;;;;;4847098;29;20035;-77
2021/11/21 10:43:55;;;;;;;1.60;0.95;;;10.40;99.90;;;;;;4864760;29;20021;-78
2021/11/21 10:46:26;;;;;;;4.22;0.50;;;10.40;99.90;;;;;;4844820;29;20072;-78
2021/11/21 10:49:26;;;;;;;0.95;0.40;;;10.40;99.90;;;;;;4844386;29;20648;-79
2021/11/21 10:51:58;;;;;;;5.15;1.48;;;10.40;99.90;;;;;;4814882;29;20045;-79
2021/11/21 10:54:55;;;;;;;5.63;0.90;;;10.50;99.90;;;;;;4860337;29;20395;-78
2021/11/21 10:57:34;;;;;;;2.33;0.50;;;10.50;99.90;;;;;;4860812;29;20547;-77
2021/11/21 11:00:06;;;;;;;2.55;0.52;;;10.70;99.90;;;;;;4851146;29;20582;-78
2021/11/21 11:02:42;;;;;;;7.00;0.93;;;10.90;99.90;;;;;;4846318;29;20021;-77
2021/11/21 11:05:11;;;;;;;3.35;0.57;;;10.80;99.90;;;;;;4845389;29;20049;-80
2021/11/21 11:07:41;;;;;;;3.25;1.30;;;10.70;99.90;;;;;;4845773;29;20076;-80
2021/11/21 11:10:12;;;;;;;2.28;0.75;;;10.70;99.90;;;;;;4845981;29;20053;-78
2021/11/21 11:12:38;;;;;;;5.80;0.82;;;10.70;99.90;;;;;;4843774;29;20375;-79
2021/11/21 11:15:05;;;;;;;12.75;0.70;;;10.70;99.90;;;;;;4874923;29;20025;-81
2021/11/21 11:17:31;;;;;;;5.40;1.00;;;10.70;99.90;;;;;;4838717;29;20044;-79
2021/11/21 11:19:59;;;;;;;5.15;1.00;;;10.70;99.90;;;;;;4852524;29;20113;-81
2021/11/21 11:22:27;;;;;;;11.65;1.20;;;10.80;99.90;;;;;;4844840;29;20116;-81
2021/11/21 11:24:55;;;;;;;6.72;0.73;;;10.70;99.90;;;;;;4862134;29;20113;-80
2021/11/21 11:27:21;;;;;;;2.03;0.80;;;10.80;99.90;;;;;;4862197;29;20120;-81
2021/11/21 11:29:49;;;;;;;6.78;0.60;;;10.70;99.90;;;;;;4844715;29;20140;-82
2021/11/21 11:32:28;;;;;;;8.15;0.77;;;10.70;99.90;;;;;;4861434;29;20116;-82
2021/11/21 11:34:55;;;;;;;7.28;2.63;;;10.80;99.90;;;;;;4845256;29;20037;-81
2021/11/21 11:37:39;;;;;;;0.75;0.47;;;10.80;99.90;;;;;;4860490;29;20048;-81
2021/11/21 11:40:27;;;;;;;3.90;1.02;;;10.70;99.90;;;;;;4844913;29;20037;-82
2021/11/21 11:42:55;;;;;;;11.77;2.67;;;10.70;99.90;;;;;;4846287;29;20463;-81
2021/11/21 11:45:50;;;;;;;7.53;0.95;;;10.90;99.90;;;;;;4861419;29;20120;-80
2021/11/21 11:48:35;;;;;;;9.88;0.88;;;10.90;99.90;;;;;;4844561;29;20402;-80
2021/11/21 11:51:17;;;;;;;5.43;0.80;;;10.80;99.90;;;;;;4845468;29;20030;-81
2021/11/21 11:53:51;;;;;;;3.85;0.95;;;10.80;99.90;;;;;;4861947;29;20035;-81
2021/11/21 11:56:24;;;;;;;6.85;0.68;;;10.80;99.90;;;;;;4857367;29;20028;-80
2021/11/21 11:58:59;;;;;;;8.02;0.95;;;10.90;99.90;;;;;;4847719;29;20152;-79
2021/11/21 12:01:39;;;;;;;7.60;1.00;;;10.70;99.90;;;;;;4840083;29;20029;-78
2021/11/21 12:04:17;;;;;;;5.57;0.98;;;10.50;99.90;;;;;;4854205;29;20025;-80
2021/11/21 12:07:18;;;;;;;7.25;1.38;;;10.40;99.90;;;;;;4858835;29;20029;-80
2021/11/21 12:10:00;;;;;;;16.25;1.15;;;10.50;99.90;;;;;;4849044;29;20064;-79
2021/11/21 12:12:51;;;;;;;7.75;1.02;;;10.60;99.90;;;;;;4857255;29;20021;-80
2021/11/21 12:15:28;;;;;;;4.80;0.80;;;10.80;99.90;;;;;;4849278;29;20159;-80
2021/11/21 12:17:54;;;;;;;7.28;0.88;;;10.80;99.90;;;;;;4853814;29;20026;-78
2021/11/21 12:20:43;;;;;;;3.63;1.02;;;10.80;99.90;;;;;;4855929;29;20079;-79
2021/11/21 12:23:09;;;;;;;7.55;1.30;;;10.80;99.90;;;;;;4854532;29;20021;-80
2021/11/21 12:25:34;;;;;;;5.82;0.82;;;10.80;99.90;;;;;;4854875;29;20061;-80
2021/11/21 12:28:02;;;;;;;3.58;0.80;;;11.00;99.90;;;;;;4842797;29;20064;-78
2021/11/21 12:30:33;;;;;;;7.95;0.73;;;11.10;99.90;;;;;;4859606;29;20117;-79
2021/11/21 12:33:19;;;;;;;6.72;0.50;;;11.30;99.90;;;;;;4857737;29;20032;-79
2021/11/21 12:35:53;;;;;;;6.50;1.20;;;11.20;99.90;;;;;;4854269;29;20414;-80
2021/11/21 12:38:21;;;;;;;4.75;0.50;;;11.00;99.90;;;;;;4856867;29;20026;-79
2021/11/21 12:40:52;;;;;;;4.32;0.80;;;10.80;99.90;;;;;;4856185;29;20098;-80
2021/11/21 12:43:20;;;;;;;6.57;1.13;;;10.70;99.90;;;;;;4845169;29;20033;-81
2021/11/21 12:45:48;;;;;;;5.72;0.60;;;10.60;99.90;;;;;;4865293;29;20037;-80
2021/11/21 12:48:16;;;;;;;6.72;0.85;;;10.60;99.90;;;;;;4871624;29;20093;-79